Time;durP1;ratioP1;P1;durP2;ratioP2;P2;SDS_P1;SDS_P2;PMS_P1;PMS_P2;Temp;Humidity;BMP_temperature;BMP_pressure;BME280_temperature;BME280_humidity;BME280_pressure;Samples;Min_cycle;Max_cycle;Signal;HPM_P1;HPM_P2
2022/06/15 00:01:16;;;;;;;11.13;4.77;;;12.70;99.90;;;;;;5031301;28;20818;-53
2022/06/15 00:03:42;;;;;;;8.90;4.20;;;12.60;99.90;;;;;;5038523;28;20441;-53
2022/06/15 00:06:13;;;;;;;9.80;4.80;;;12.50;99.90;;;;;;5044039;28;20453;-53
2022/06/15 00:08:41;;;;;;;6.33;4.53;;;12.50;99.90;;;;;;5038777;28;20229;-53
2022/06/15 00:11:19;;;;;;;9.37;4.90;;;12.50;99.90;;;;;;5030600;28;20452;-53
2022/06/15 00:13:46;;;;;;;9.63;4.27;;;12.40;99.90;;;;;;5036101;28;20509;-53
2022/06/15 00:16:12;;;;;;;6.93;4.13;;;12.40;99.90;;;;;;5026700;28;20437;-53
2022/06/15 00:18:38;;;;;;;8.20;3.73;;;12.40;99.90;;;;;;5033012;28;20466;-53
2022/06/15 00:21:06;;;;;;;7.60;4.80;;;12.40;99.90;;;;;;5032615;28;20449;-53
2022/06/15 00:23:33;;;;;;;6.80;4.73;;;12.30;99.90;;;;;;5032683;28;20187;-53
2022/06/15 00:25:59;;;;;;;6.37;4.40;;;12.30;99.90;;;;;;5036561;28;20438;-53
2022/06/15 00:28:26;;;;;;;7.10;4.33;;;12.20;99.90;;;;;;5041959;28;20433;-53
2022/06/15 00:30:52;;;;;;;8.67;4.40;;;12.20;99.90;;;;;;5044532;28;20197;-53
2022/06/15 00:33:21;;;;;;;7.27;4.40;;;12.20;99.90;;;;;;5032976;28;20474;-53
2022/06/15 00:35:56;;;;;;;6.07;4.00;;;12.20;99.90;;;;;;5032928;28;20460;-53
2022/06/15 00:38:27;;;;;;;11.43;4.00;;;12.20;99.90;;;;;;5029337;28;20577;-53
2022/06/15 00:40:53;;;;;;;7.67;4.00;;;12.20;99.90;;;;;;5037687;28;20443;-53
2022/06/15 00:43:37;;;;;;;7.73;4.20;;;12.20;99.90;;;;;;5041200;28;20532;-53
2022/06/15 00:46:17;;;;;;;6.67;4.33;;;12.20;99.90;;;;;;5034710;28;20437;-53
2022/06/15 00:48:44;;;;;;;6.03;4.00;;;12.20;99.90;;;;;;5037408;28;20966;-53
2022/06/15 00:51:11;;;;;;;7.83;3.63;;;12.20;99.90;;;;;;5044205;28;20476;-53
2022/06/15 00:53:37;;;;;;;8.90;3.80;;;12.20;99.90;;;;;;5032846;28;20515;-53
2022/06/15 00:56:04;;;;;;;6.10;4.50;;;12.20;99.90;;;;;;5041243;28;20425;-52
2022/06/15 00:58:31;;;;;;;10.10;4.20;;;12.20;99.90;;;;;;5030681;28;20442;-53
2022/06/15 01:00:57;;;;;;;6.40;4.00;;;12.20;99.90;;;;;;5039339;28;20950;-54
2022/06/15 01:03:23;;;;;;;10.73;4.20;;;12.20;99.90;;;;;;5034437;28;20587;-57
2022/06/15 01:06:06;;;;;;;6.20;4.17;;;12.20;99.90;;;;;;5033007;28;20540;-53
2022/06/15 01:09:09;;;;;;;7.97;3.77;;;12.20;99.90;;;;;;5043219;28;20706;-53
2022/06/15 01:11:49;;;;;;;10.97;4.27;;;12.20;99.90;;;;;;5031067;28;20448;-53
2022/06/15 01:14:36;;;;;;;6.03;3.90;;;12.20;99.90;;;;;;5029156;28;20497;-53
2022/06/15 01:17:30;;;;;;;8.33;4.23;;;12.20;99.90;;;;;;5041802;28;20889;-53
2022/06/15 01:20:39;;;;;;;7.77;4.23;;;12.20;99.90;;;;;;5026920;28;20493;-53
2022/06/15 01:23:13;;;;;;;8.27;4.13;;;12.20;99.90;;;;;;5039601;28;20486;-53
2022/06/15 01:26:05;;;;;;;4.63;3.60;;;12.20;99.90;;;;;;5033931;28;20436;-53
2022/06/15 01:28:45;;;;;;;6.70;4.20;;;12.20;99.90;;;;;;5028915;28;20761;-53
2022/06/15 01:31:24;;;;;;;7.30;4.30;;;12.20;99.90;;;;;;5041918;28;20456;-53
2022/06/15 01:34:32;;;;;;;6.03;3.73;;;12.30;99.90;;;;;;5031983;28;20472;-53
2022/06/15 01:37:11;;;;;;;9.27;3.77;;;12.30;99.90;;;;;;5036788;28;20448;-53
2022/06/15 01:39:48;;;;;;;5.80;4.13;;;12.20;99.90;;;;;;5027134;28;20448;-53
2022/06/15 01:42:13;;;;;;;6.17;3.83;;;12.30;99.90;;;;;;5031091;28;20459;-53
2022/06/15 01:44:45;;;;;;;6.13;4.27;;;12.30;99.90;;;;;;5035628;28;20445;-53
2022/06/15 01:47:21;;;;;;;6.10;4.23;;;12.40;99.90;;;;;;5038811;28;20554;-53
2022/06/15 01:49:53;;;;;;;6.80;4.10;;;12.30;99.90;;;;;;5034410;28;20443;-52
2022/06/15 01:52:22;;;;;;;10.13;5.07;;;12.40;99.90;;;;;;5026979;28;20947;-53
2022/06/15 01:54:55;;;;;;;9.67;4.20;;;12.40;99.90;;;;;;5028740;28;20477;-53
2022/06/15 01:57:22;;;;;;;6.03;3.83;;;12.40;99.90;;;;;;5034051;28;20929;-53
2022/06/15 01:59:54;;;;;;;4.77;3.80;;;12.40;99.90;;;;;;5044819;28;20448;-53
2022/06/15 02:02:26;;;;;;;10.07;4.23;;;12.40;99.90;;;;;;5035218;28;20456;-53
2022/06/15 02:05:25;;;;;;;7.30;4.30;;;12.50;99.90;;;;;;5033338;28;20502;-53
2022/06/15 02:08:09;;;;;;;8.17;4.50;;;12.40;99.90;;;;;;5033686;28;20436;-53
2022/06/15 02:10:38;;;;;;;6.83;4.30;;;12.40;99.90;;;;;;5037936;28;20432;-53
2022/06/15 02:13:12;;;;;;;7.30;4.63;;;12.40;1.00;;;;;;5035059;28;20536;-53
2022/06/15 02:15:42;;;;;;;9.57;5.07;;;12.40;1.00;;;;;;5032429;28;20528;-53
2022/06/15 02:18:11;;;;;;;10.07;5.20;;;12.40;1.00;;;;;;5021813;28;20946;-53
2022/06/15 02:20:43;;;;;;;11.90;4.73;;;12.40;1.00;;;;;;5033438;28;20570;-53
2022/06/15 02:23:11;;;;;;;9.90;5.10;;;12.40;1.00;;;;;;5040269;28;20794;-53
2022/06/15 02:25:40;;;;;;;8.73;5.10;;;12.50;1.00;;;;;;5039235;28;20452;-53
2022/06/15 02:28:07;;;;;;;12.30;5.90;;;12.50;1.00;;;;;;5026890;28;20518;-53
2022/06/15 02:30:33;;;;;;;10.30;5.40;;;12.50;1.00;;;;;;5040720;28;20833;-53
2022/06/15 02:33:19;;;;;;;13.40;5.60;;;12.50;1.00;;;;;;5033664;28;20479;-53
2022/06/15 02:35:44;;;;;;;8.43;5.00;;;12.60;1.00;;;;;;5028560;28;20201;-53
2022/06/15 02:38:10;;;;;;;9.13;4.83;;;12.60;99.90;;;;;;5042528;28;20776;-53
2022/06/15 02:40:36;;;;;;;8.37;5.43;;;12.60;1.00;;;;;;5040956;28;20187;-53
2022/06/15 02:43:02;;;;;;;10.20;5.37;;;12.60;1.00;;;;;;5034364;28;20285;-53
2022/06/15 02:45:34;;;;;;;12.20;4.93;;;12.70;1.00;;;;;;5033072;28;20195;-53
2022/06/15 02:48:02;;;;;;;8.63;5.33;;;12.70;1.00;;;;;;5035567;28;20444;-53
2022/06/15 02:50:33;;;;;;;12.47;5.17;;;12.70;1.00;;;;;;5035331;28;20494;-53
2022/06/15 02:53:14;;;;;;;8.17;5.10;;;12.70;1.00;;;;;;5029456;28;20503;-53
2022/06/15 02:55:42;;;;;;;9.60;5.00;;;12.70;1.00;;;;;;5034982;28;20831;-53
2022/06/15 02:58:22;;;;;;;9.83;4.90;;;12.60;1.00;;;;;;5039050;28;20498;-53
2022/06/15 03:00:47;;;;;;;8.77;4.73;;;12.70;1.00;;;;;;5039126;28;20450;-53
2022/06/15 03:03:13;;;;;;;9.47;4.90;;;12.70;1.00;;;;;;5044194;28;20514;-52
2022/06/15 03:05:40;;;;;;;7.10;4.77;;;12.70;1.00;;;;;;5038502;28;20672;-53
2022/06/15 03:08:05;;;;;;;8.80;5.10;;;12.70;1.00;;;;;;5048044;28;20193;-53
2022/06/15 03:10:31;;;;;;;11.27;5.70;;;12.70;1.00;;;;;;5034677;28;20424;-53
2022/06/15 03:12:57;;;;;;;14.87;5.83;;;12.70;1.00;;;;;;5034067;28;20806;-53
2022/06/15 03:15:22;;;;;;;8.10;5.10;;;12.70;1.00;;;;;;5034529;28;20219;-53
2022/06/15 03:17:51;;;;;;;12.73;5.00;;;12.70;1.00;;;;;;5036814;28;20202;-53
2022/06/15 03:20:17;;;;;;;12.27;5.00;;;12.70;1.00;;;;;;5038130;28;20191;-53
2022/06/15 03:22:43;;;;;;;12.00;4.90;;;12.70;1.00;;;;;;5028033;28;20429;-53
2022/06/15 03:25:08;;;;;;;5.90;4.50;;;12.70;1.00;;;;;;5028006;28;20187;-53
2022/06/15 03:27:34;;;;;;;12.43;5.13;;;12.70;1.00;;;;;;5035085;28;20182;-55
2022/06/15 03:30:00;;;;;;;8.23;4.90;;;12.70;1.00;;;;;;5039278;28;20186;-53
2022/06/15 03:32:26;;;;;;;9.20;4.90;;;12.70;1.00;;;;;;5036750;28;20187;-53
2022/06/15 03:34:51;;;;;;;9.00;5.13;;;12.70;1.00;;;;;;5035607;28;20931;-53
2022/06/15 03:37:17;;;;;;;9.70;5.07;;;12.80;1.00;;;;;;5043219;28;20198;-53
2022/06/15 03:39:43;;;;;;;20.00;7.80;;;12.80;1.00;;;;;;5028128;28;20187;-53
2022/06/15 03:42:13;;;;;;;15.97;7.10;;;12.80;1.00;;;;;;5034534;28;20696;-53
2022/06/15 03:44:39;;;;;;;16.33;7.60;;;12.90;1.00;;;;;;5028586;28;20194;-53
2022/06/15 03:47:08;;;;;;;20.70;8.57;;;12.90;1.00;;;;;;5034958;28;20698;-53
2022/06/15 03:49:34;;;;;;;28.37;10.53;;;13.00;1.00;;;;;;5044613;28;20421;-53
2022/06/15 03:51:59;;;;;;;28.30;9.80;;;13.00;1.00;;;;;;5037463;28;20516;-53
2022/06/15 03:54:25;;;;;;;20.20;9.40;;;13.00;1.00;;;;;;5037115;28;20214;-53
2022/06/15 03:56:50;;;;;;;17.53;8.10;;;13.10;1.00;;;;;;5039755;28;20187;-53
2022/06/15 03:59:16;;;;;;;21.13;9.03;;;13.10;1.00;;;;;;5039878;28;20191;-53
2022/06/15 04:01:42;;;;;;;18.20;7.10;;;13.10;1.00;;;;;;5046352;28;20890;-53
2022/06/15 04:04:09;;;;;;;19.30;8.20;;;13.20;1.00;;;;;;5036195;28;20540;-53
2022/06/15 04:06:34;;;;;;;21.13;9.03;;;13.20;1.00;;;;;;5035762;28;20198;-53
2022/06/15 04:09:00;;;;;;;23.17;9.33;;;13.20;1.00;;;;;;5045166;28;20796;-53
2022/06/15 04:14:10;;;;;;;22.13;9.00;;;13.30;1.00;;;;;;5047157;28;20291;-53
2022/06/15 04:16:36;;;;;;;17.30;8.30;;;13.30;1.00;;;;;;5025105;28;20909;-53
2022/06/15 04:19:04;;;;;;;16.93;7.90;;;13.40;1.00;;;;;;5028188;28;20389;-54
2022/06/15 04:21:30;;;;;;;20.03;7.97;;;13.40;1.00;;;;;;5035127;28;20190;-53
2022/06/15 04:23:55;;;;;;;19.00;7.70;;;13.60;1.00;;;;;;5040092;28;20453;-53
2022/06/15 04:26:21;;;;;;;16.73;8.10;;;13.60;1.00;;;;;;5025445;28;20983;-53
2022/06/15 04:28:47;;;;;;;18.20;7.70;;;13.80;99.90;;;;;;5033320;28;20348;-53
2022/06/15 04:31:13;;;;;;;19.03;7.80;;;13.80;99.90;;;;;;5035631;28;20202;-53
2022/06/15 04:33:38;;;;;;;24.00;7.93;;;14.00;99.90;;;;;;5034924;28;20690;-53
2022/06/15 04:36:05;;;;;;;17.33;6.80;;;14.00;99.90;;;;;;5044785;28;20540;-53
2022/06/15 04:38:31;;;;;;;10.97;5.90;;;14.10;99.90;;;;;;5027070;28;20179;-53
2022/06/15 04:40:57;;;;;;;10.20;6.23;;;14.20;99.90;;;;;;5041916;28;20441;-53
2022/06/15 04:43:22;;;;;;;9.00;5.30;;;14.30;99.90;;;;;;5034324;28;20445;-53
2022/06/15 04:45:48;;;;;;;12.23;5.10;;;14.40;99.90;;;;;;5041579;28;20197;-53
2022/06/15 04:48:14;;;;;;;8.77;5.30;;;14.40;99.90;;;;;;5035280;28;20190;-53
2022/06/15 04:50:40;;;;;;;15.70;5.37;;;14.60;99.90;;;;;;5039087;28;20256;-53
2022/06/15 04:53:06;;;;;;;11.37;5.60;;;14.60;99.90;;;;;;5025821;28;20618;-53
2022/06/15 04:55:33;;;;;;;11.17;5.40;;;14.80;99.90;;;;;;5023516;28;20445;-53
2022/06/15 04:57:59;;;;;;;10.10;5.37;;;14.90;99.90;;;;;;5036391;28;20430;-53
2022/06/15 05:00:28;;;;;;;9.27;5.40;;;15.00;99.90;;;;;;5031715;28;20445;-53
2022/06/15 05:02:54;;;;;;;9.27;4.73;;;15.10;99.90;;;;;;5034139;28;20485;-53
2022/06/15 05:05:20;;;;;;;14.80;5.67;;;15.20;99.90;;;;;;5032043;28;21209;-53
2022/06/15 05:07:46;;;;;;;10.47;4.90;;;15.30;99.90;;;;;;5037627;28;20232;-53
2022/06/15 05:10:18;;;;;;;6.70;4.50;;;15.40;99.90;;;;;;5036797;28;20459;-53
2022/06/15 05:12:45;;;;;;;9.50;4.00;;;15.40;99.90;;;;;;5036616;28;20490;-53
2022/06/15 05:15:13;;;;;;;6.13;3.90;;;15.50;99.90;;;;;;5041675;28;20441;-53
2022/06/15 05:17:40;;;;;;;7.00;3.97;;;15.70;99.90;;;;;;5035468;28;20428;-53
2022/06/15 05:20:11;;;;;;;9.00;2.97;;;16.20;99.90;;;;;;5038546;28;20438;-54
2022/06/15 05:22:39;;;;;;;6.67;2.90;;;16.40;99.90;;;;;;5037104;28;20452;-53
2022/06/15 05:25:07;;;;;;;6.53;3.10;;;16.50;99.90;;;;;;5029273;28;20434;-53
2022/06/15 05:27:34;;;;;;;6.20;3.20;;;16.80;99.90;;;;;;5037348;28;20414;-53
2022/06/15 05:29:59;;;;;;;5.87;3.30;;;16.80;99.90;;;;;;5038975;28;20427;-53
2022/06/15 05:32:26;;;;;;;5.63;3.50;;;16.90;99.90;;;;;;5044370;28;20810;-53
2022/06/15 05:34:55;;;;;;;6.17;3.70;;;17.20;99.90;;;;;;5012889;28;20272;-53
2022/06/15 05:37:22;;;;;;;8.90;4.40;;;17.50;99.90;;;;;;5030118;28;20918;-53
2022/06/15 05:39:48;;;;;;;7.20;4.33;;;17.50;99.90;;;;;;5024460;28;20453;-53
2022/06/15 05:42:15;;;;;;;6.00;4.63;;;17.40;99.90;;;;;;5019666;28;20433;-53
2022/06/15 05:47:11;;;;;;;6.90;4.43;;;17.50;99.90;;;;;;5037707;28;20449;-53
2022/06/15 05:49:37;;;;;;;14.43;5.10;;;17.50;99.90;;;;;;5032884;28;20795;-53
2022/06/15 05:52:03;;;;;;;10.93;5.40;;;17.60;99.90;;;;;;5040905;28;20493;-53
2022/06/15 05:54:28;;;;;;;9.10;5.10;;;17.90;99.90;;;;;;5031972;28;20457;-53
2022/06/15 05:56:54;;;;;;;8.93;5.10;;;18.20;99.90;;;;;;5036498;28;20442;-53
2022/06/15 05:59:20;;;;;;;5.27;4.30;;;18.30;99.90;;;;;;5034144;28;20175;-53
2022/06/15 06:01:45;;;;;;;8.30;4.33;;;18.30;99.90;;;;;;5037667;28;20187;-53
2022/06/15 06:04:15;;;;;;;6.10;4.33;;;18.30;99.90;;;;;;5027733;28;20187;-54
2022/06/15 06:06:42;;;;;;;7.10;4.77;;;18.30;99.90;;;;;;5032559;28;20184;-53
2022/06/15 06:09:09;;;;;;;6.50;4.13;;;18.40;99.90;;;;;;5030816;28;20536;-53
2022/06/15 06:11:36;;;;;;;6.13;4.27;;;18.50;99.90;;;;;;5036456;28;20424;-54
2022/06/15 06:14:02;;;;;;;5.40;3.80;;;18.50;99.90;;;;;;5032086;28;20484;-53
2022/06/15 06:16:27;;;;;;;8.13;4.37;;;18.70;99.90;;;;;;5034675;28;20436;-54
2022/06/15 06:18:53;;;;;;;8.80;4.40;;;18.80;99.90;;;;;;5041221;28;20421;-53
2022/06/15 06:21:19;;;;;;;7.43;4.20;;;19.00;99.90;;;;;;5037377;28;20185;-53
2022/06/15 06:23:46;;;;;;;5.23;4.37;;;19.20;99.90;;;;;;5035093;28;20186;-53
2022/06/15 06:26:25;;;;;;;7.20;4.37;;;19.40;99.90;;;;;;5023273;28;20441;-53
2022/06/15 06:28:51;;;;;;;10.90;4.10;;;19.50;99.90;;;;;;5031626;28;20447;-53
2022/06/15 06:31:20;;;;;;;7.27;4.30;;;19.80;99.90;;;;;;5036426;28;20515;-54
2022/06/15 06:33:46;;;;;;;6.00;4.03;;;19.80;99.90;;;;;;5039259;28;20470;-53
2022/06/15 06:36:40;;;;;;;8.53;4.40;;;20.10;99.90;;;;;;5042136;28;20849;-53
2022/06/15 06:39:17;;;;;;;7.77;3.93;;;20.20;99.90;;;;;;5036784;28;20441;-53
2022/06/15 06:41:44;;;;;;;7.50;3.13;;;20.40;99.90;;;;;;5033010;28;20412;-53
2022/06/15 06:44:11;;;;;;;8.17;3.40;;;20.40;99.90;;;;;;5036233;28;20414;-53
2022/06/15 06:46:37;;;;;;;5.40;2.77;;;20.50;99.90;;;;;;5043280;28;20758;-53
2022/06/15 06:49:07;;;;;;;9.67;3.70;;;20.60;99.90;;;;;;5035000;28;20504;-53
2022/06/15 06:51:35;;;;;;;11.03;3.73;;;20.70;99.90;;;;;;5037955;28;20409;-53
2022/06/15 06:54:01;;;;;;;7.03;3.07;;;21.00;99.90;;;;;;5036780;28;20564;-53
2022/06/15 06:56:27;;;;;;;3.73;2.70;;;21.10;99.90;;;;;;5042495;28;20421;-53
2022/06/15 06:58:53;;;;;;;7.17;2.50;;;21.20;99.90;;;;;;5041825;28;20424;-53
2022/06/15 07:01:18;;;;;;;4.17;2.60;;;21.20;99.90;;;;;;5028913;28;20183;-53
2022/06/15 07:03:44;;;;;;;4.77;2.70;;;21.10;99.90;;;;;;5034925;28;20214;-53
2022/06/15 07:06:10;;;;;;;4.73;2.60;;;21.10;99.90;;;;;;5030621;28;20196;-53
2022/06/15 07:08:38;;;;;;;6.17;2.10;;;21.30;99.90;;;;;;5035039;28;20277;-53
2022/06/15 07:11:16;;;;;;;4.43;2.40;;;21.40;99.90;;;;;;5036941;28;20579;-53
2022/06/15 07:13:43;;;;;;;3.97;2.63;;;21.60;99.90;;;;;;5039183;28;20982;-53
2022/06/15 07:16:14;;;;;;;6.10;2.57;;;21.90;99.90;;;;;;5033983;28;20437;-53
2022/06/15 07:18:40;;;;;;;6.30;2.37;;;22.20;99.90;;;;;;5039778;28;20433;-53
2022/06/15 07:21:11;;;;;;;6.80;2.40;;;22.40;99.90;;;;;;5043519;28;20455;-53
2022/06/15 07:23:38;;;;;;;3.37;1.90;;;22.40;99.90;;;;;;5037142;28;20516;-53
2022/06/15 07:26:10;;;;;;;4.50;2.17;;;22.30;99.90;;;;;;5040563;28;20412;-53
2022/06/15 07:28:36;;;;;;;5.80;2.07;;;22.30;99.90;;;;;;5043105;28;20475;-53
2022/06/15 07:31:02;;;;;;;5.20;2.57;;;22.60;99.90;;;;;;5046244;28;20421;-52
2022/06/15 07:33:27;;;;;;;2.63;2.03;;;22.80;99.90;;;;;;5037387;28;20669;-53
2022/06/15 07:35:53;;;;;;;4.90;2.60;;;22.90;99.90;;;;;;5049529;28;20261;-52
2022/06/15 07:38:19;;;;;;;3.93;2.40;;;23.00;99.90;;;;;;5038504;28;20174;-52
2022/06/15 07:40:46;;;;;;;5.20;2.60;;;23.10;99.90;;;;;;5041744;28;20191;-53
2022/06/15 07:43:12;;;;;;;4.53;2.30;;;23.30;99.90;;;;;;5045467;28;20811;-52
2022/06/15 07:45:38;;;;;;;5.70;2.57;;;23.50;99.90;;;;;;5036286;28;20421;-52
2022/06/15 07:50:49;;;;;;;7.73;2.20;;;23.80;99.90;;;;;;5039081;28;20421;-52
2022/06/15 07:53:15;;;;;;;4.57;2.53;;;23.80;99.90;;;;;;5043717;28;20465;-52
2022/06/15 07:55:43;;;;;;;4.00;2.40;;;23.90;99.90;;;;;;5045267;28;20629;-52
2022/06/15 07:58:09;;;;;;;6.10;2.80;;;23.50;99.90;;;;;;5040472;28;20273;-52
2022/06/15 08:00:37;;;;;;;4.97;2.40;;;23.20;99.90;;;;;;5041303;28;20410;-53
2022/06/15 08:03:04;;;;;;;4.50;2.13;;;23.10;99.90;;;;;;5039729;28;20405;-52
2022/06/15 08:05:35;;;;;;;3.37;2.27;;;23.40;99.90;;;;;;5041207;28;20418;-52
2022/06/15 08:08:13;;;;;;;2.70;1.90;;;24.10;99.90;;;;;;5038645;28;20508;-52
2022/06/15 08:10:39;;;;;;;6.97;2.47;;;24.70;99.90;;;;;;5041308;28;20475;-52
2022/06/15 08:13:06;;;;;;;5.57;1.77;;;25.30;99.90;;;;;;5046247;28;20465;-52
2022/06/15 08:15:32;;;;;;;3.70;2.07;;;25.80;99.90;;;;;;5044162;28;20661;-52
2022/06/15 08:18:03;;;;;;;7.80;1.97;;;25.60;99.90;;;;;;5041593;28;20448;-52
2022/06/15 08:20:35;;;;;;;2.60;1.90;;;24.70;99.90;;;;;;5042612;28;20190;-52
2022/06/15 08:23:07;;;;;;;3.57;2.00;;;23.80;99.90;;;;;;5047441;28;20429;-52
2022/06/15 08:25:39;;;;;;;3.43;2.23;;;23.10;99.90;;;;;;5041822;28;20497;-52
2022/06/15 08:28:07;;;;;;;2.80;2.10;;;22.70;99.90;;;;;;5046116;28;20407;-52
2022/06/15 08:30:34;;;;;;;4.30;2.00;;;22.40;99.90;;;;;;5040677;28;20986;-52
2022/06/15 08:33:00;;;;;;;3.10;1.97;;;21.80;99.90;;;;;;5033435;28;20483;-52
2022/06/15 08:35:25;;;;;;;5.27;2.10;;;21.30;99.90;;;;;;5042624;28;20788;-52
2022/06/15 08:37:51;;;;;;;4.50;1.83;;;20.90;99.90;;;;;;5041372;28;20198;-53
2022/06/15 08:40:17;;;;;;;6.70;2.00;;;20.70;99.90;;;;;;5043321;28;20616;-53
2022/06/15 08:42:57;;;;;;;3.50;2.23;;;20.50;99.90;;;;;;5046489;28;20217;-53
2022/06/15 08:45:27;;;;;;;5.43;1.80;;;20.70;99.90;;;;;;5039963;28;20433;-53
2022/06/15 08:47:58;;;;;;;3.17;1.80;;;21.80;99.90;;;;;;5045912;28;20425;-52
2022/06/15 08:50:43;;;;;;;4.67;2.00;;;23.00;99.90;;;;;;5043057;28;20417;-52
2022/06/15 08:53:23;;;;;;;4.30;2.40;;;23.60;99.90;;;;;;5040778;28;20436;-53
2022/06/15 08:56:07;;;;;;;6.90;3.00;;;23.20;99.90;;;;;;5039411;28;20421;-53
2022/06/15 08:58:39;;;;;;;5.63;1.87;;;22.50;99.90;;;;;;5043001;28;20413;-52
2022/06/15 09:01:30;;;;;;;4.10;2.20;;;22.10;99.90;;;;;;5045685;28;20420;-52
2022/06/15 09:04:16;;;;;;;3.10;2.10;;;21.60;99.90;;;;;;5035817;28;20413;-52
2022/06/15 09:07:16;;;;;;;5.90;2.27;;;21.50;99.90;;;;;;5031357;28;20440;-52
2022/06/15 09:10:12;;;;;;;5.67;2.20;;;21.30;99.90;;;;;;5040609;28;20459;-52
2022/06/15 09:13:12;;;;;;;5.50;2.70;;;21.40;99.90;;;;;;5036072;28;20465;-52
2022/06/15 09:15:53;;;;;;;3.30;2.20;;;22.50;99.90;;;;;;5039067;28;20419;-52
2022/06/15 09:18:31;;;;;;;3.57;2.20;;;23.60;99.90;;;;;;5031427;28;20432;-52
2022/06/15 09:21:05;;;;;;;5.40;2.00;;;23.80;99.90;;;;;;5037309;28;20508;-52
2022/06/15 09:23:38;;;;;;;1.80;1.50;;;23.70;99.90;;;;;;5045443;28;20452;-52
2022/06/15 09:26:28;;;;;;;2.80;1.80;;;23.70;99.90;;;;;;5039632;28;20968;-52
2022/06/15 09:29:16;;;;;;;4.60;2.20;;;23.50;99.90;;;;;;5042712;28;20449;-51
2022/06/15 09:31:57;;;;;;;3.20;2.23;;;23.00;99.90;;;;;;5032589;28;20821;-52
2022/06/15 09:34:34;;;;;;;3.83;2.10;;;22.20;99.90;;;;;;5036921;28;20465;-52
2022/06/15 09:37:03;;;;;;;3.47;1.77;;;21.60;99.90;;;;;;5040776;28;20499;-52
2022/06/15 09:39:29;;;;;;;5.07;2.20;;;21.00;99.90;;;;;;5038830;28;20422;-52
2022/06/15 09:42:13;;;;;;;2.57;1.80;;;20.70;99.90;;;;;;5040926;28;20449;-52
2022/06/15 09:44:57;;;;;;;4.20;2.37;;;21.50;99.90;;;;;;5040760;28;20425;-52
2022/06/15 09:47:50;;;;;;;4.03;2.50;;;22.20;99.90;;;;;;5043561;28;20508;-52
2022/06/15 09:50:24;;;;;;;3.07;2.20;;;23.40;99.90;;;;;;5041573;28;20442;-53
2022/06/15 09:52:56;;;;;;;3.73;2.40;;;24.20;99.90;;;;;;5036248;28;20481;-52
2022/06/15 09:55:41;;;;;;;5.10;3.00;;;24.60;99.90;;;;;;5040454;28;20453;-52
2022/06/15 09:58:11;;;;;;;5.30;2.83;;;25.50;99.90;;;;;;5030236;28;20727;-52
2022/06/15 10:00:38;;;;;;;4.10;2.20;;;26.30;99.90;;;;;;5039157;28;20410;-52
2022/06/15 10:03:28;;;;;;;6.43;2.27;;;26.30;99.90;;;;;;5038261;28;20424;-52
2022/06/15 10:06:00;;;;;;;3.70;2.40;;;26.50;99.90;;;;;;5035581;28;20519;-52
2022/06/15 10:08:26;;;;;;;5.27;2.40;;;26.90;99.90;;;;;;5041334;28;20414;-52
2022/06/15 10:10:56;;;;;;;6.10;2.40;;;27.20;99.90;;;;;;5044003;28;20409;-52
2022/06/15 10:13:41;;;;;;;3.93;1.90;;;27.40;99.90;;;;;;5031825;28;20243;-52
2022/06/15 10:16:30;;;;;;;3.20;1.97;;;27.00;99.90;;;;;;5037972;28;20430;-52
2022/06/15 10:19:08;;;;;;;5.23;2.30;;;25.90;99.90;;;;;;5038340;28;20435;-52
2022/06/15 10:21:36;;;;;;;6.87;2.60;;;24.60;99.90;;;;;;5042555;28;20417;-52
2022/06/15 10:24:14;;;;;;;6.23;2.20;;;23.70;99.90;;;;;;5042917;28;20529;-52
2022/06/15 10:27:20;;;;;;;3.70;1.90;;;23.10;99.90;;;;;;5031083;28;20429;-52
2022/06/15 10:29:56;;;;;;;2.37;1.93;;;22.80;99.90;;;;;;5039104;28;20928;-52
2022/06/15 10:32:22;;;;;;;13.03;2.53;;;23.60;99.90;;;;;;5039553;28;20908;-52
2022/06/15 10:34:48;;;;;;;5.13;2.20;;;25.00;99.90;;;;;;5042616;28;20507;-52
2022/06/15 10:37:18;;;;;;;3.87;2.43;;;26.30;99.90;;;;;;5041680;28;20310;-52
2022/06/15 10:39:48;;;;;;;4.87;2.57;;;27.10;99.90;;;;;;5035955;28;20206;-52
2022/06/15 10:42:24;;;;;;;5.00;2.50;;;27.60;99.90;;;;;;5041530;28;20409;-52
2022/06/15 10:45:01;;;;;;;5.23;2.20;;;27.90;99.90;;;;;;5037813;28;20504;-52
2022/06/15 10:47:31;;;;;;;6.20;2.50;;;28.00;99.90;;;;;;5038341;28;20511;-52
2022/06/15 10:50:06;;;;;;;4.57;2.23;;;28.30;99.90;;;;;;5023656;28;20429;-52
2022/06/15 10:52:45;;;;;;;10.07;2.40;;;28.70;99.90;;;;;;5035296;28;20429;-49
2022/06/15 11:04:11;;;;;;;2.73;2.20;;;29.40;99.90;;;;;;5048664;28;20584;-52
2022/06/15 11:06:41;;;;;;;7.07;2.10;;;28.10;99.90;;;;;;5033654;28;20432;-51
2022/06/15 11:09:18;;;;;;;3.87;2.60;;;27.00;99.90;;;;;;5040575;28;20444;-51
2022/06/15 11:11:44;;;;;;;6.27;2.17;;;26.10;99.90;;;;;;5035625;28;20778;-51
2022/06/15 11:14:19;;;;;;;3.60;2.07;;;25.60;99.90;;;;;;5039610;28;20501;-51
2022/06/15 11:19:29;;;;;;;5.43;2.50;;;24.30;99.90;;;;;;5037431;28;20588;-52
2022/06/15 11:22:04;;;;;;;5.23;1.90;;;23.70;99.90;;;;;;5036513;28;20472;-51
2022/06/15 11:24:36;;;;;;;2.40;2.17;;;23.50;99.90;;;;;;5042502;28;20444;-51
2022/06/15 11:27:25;;;;;;;4.43;2.50;;;24.40;99.90;;;;;;5043274;28;20456;-51
2022/06/15 11:30:05;;;;;;;6.50;2.37;;;25.90;99.90;;;;;;5045170;28;20430;-51
2022/06/15 11:32:45;;;;;;;8.57;3.00;;;27.30;99.90;;;;;;5041145;28;20481;-51
2022/06/15 11:35:13;;;;;;;6.67;2.80;;;28.20;99.90;;;;;;5031239;28;20496;-51
2022/06/15 11:37:55;;;;;;;3.83;2.90;;;28.80;99.90;;;;;;5037648;28;20469;-51
2022/06/15 11:40:40;;;;;;;3.17;2.13;;;28.90;99.90;;;;;;5039555;28;20520;-51
2022/06/15 11:43:52;;;;;;;2.77;2.37;;;29.20;99.90;;;;;;5066076;28;20441;-51
2022/06/15 11:46:47;;;;;;;3.13;1.87;;;29.80;99.90;;;;;;5034490;28;20468;-51
2022/06/15 11:49:37;;;;;;;4.30;2.03;;;30.40;99.90;;;;;;5036518;28;20429;-51
2022/06/15 11:52:14;;;;;;;2.70;1.90;;;30.70;99.90;;;;;;5032029;28;20437;-51
2022/06/15 11:54:52;;;;;;;2.33;2.00;;;30.70;99.90;;;;;;5034148;28;20560;-52
2022/06/15 11:57:43;;;;;;;3.57;2.40;;;30.00;99.90;;;;;;5062776;28;20455;-51
2022/06/15 12:00:31;;;;;;;2.97;1.87;;;29.10;99.90;;;;;;5043857;28;20428;-51
2022/06/15 12:03:34;;;;;;;3.70;1.90;;;28.20;99.90;;;;;;5041187;28;20436;-51
2022/06/15 12:06:37;;;;;;;3.53;2.23;;;27.30;99.90;;;;;;5038405;28;20452;-51
2022/06/15 12:09:21;;;;;;;6.17;2.97;;;26.60;99.90;;;;;;5037217;28;20452;-51
2022/06/15 12:15:07;;;;;;;4.53;2.80;;;27.20;99.90;;;;;;5026400;28;20876;-51
2022/06/15 12:17:38;;;;;;;7.80;2.43;;;28.10;99.90;;;;;;5035727;28;20516;-51
2022/06/15 12:20:23;;;;;;;3.90;1.90;;;28.80;99.90;;;;;;5036946;28;20406;-51
2022/06/15 12:23:18;;;;;;;3.43;2.10;;;29.60;99.90;;;;;;5032781;28;20775;-52
2022/06/15 12:26:02;;;;;;;6.10;2.30;;;29.80;99.90;;;;;;5033142;28;20438;-51
2022/06/15 12:28:36;;;;;;;3.37;2.70;;;30.30;99.90;;;;;;5042474;28;20429;-51
2022/06/15 12:31:25;;;;;;;4.93;2.70;;;30.70;99.90;;;;;;5041183;28;20444;-51
2022/06/15 12:34:02;;;;;;;4.73;2.47;;;30.50;99.90;;;;;;5031661;28;20507;-51
2022/06/15 12:36:44;;;;;;;5.97;2.40;;;30.30;99.90;;;;;;5030385;28;20433;-51
2022/06/15 12:39:23;;;;;;;5.20;2.20;;;30.10;99.90;;;;;;5044706;28;20754;-51
2022/06/15 12:44:51;;;;;;;4.20;2.17;;;28.50;99.90;;;;;;5039740;28;20496;-51
2022/06/15 12:47:19;;;;;;;3.10;2.10;;;27.30;99.90;;;;;;5033317;28;20436;-51
2022/06/15 12:50:03;;;;;;;6.83;2.47;;;26.80;99.90;;;;;;5044177;28;21006;-52
2022/06/15 12:52:57;;;;;;;5.30;2.70;;;25.90;99.90;;;;;;5045108;28;20424;-51
2022/06/15 12:55:23;;;;;;;3.20;2.17;;;25.20;99.90;;;;;;5035923;28;20473;-51
2022/06/15 12:58:13;;;;;;;8.40;3.10;;;25.70;99.90;;;;;;5037477;28;20834;-51
2022/06/15 13:00:51;;;;;;;5.10;2.83;;;25.90;99.90;;;;;;5046538;28;20266;-51
2022/06/15 13:03:36;;;;;;;5.60;3.20;;;25.70;99.90;;;;;;5024903;28;20809;-51
2022/06/15 13:06:21;;;;;;;7.87;3.10;;;25.60;99.90;;;;;;5017190;28;20475;-52
2022/06/15 13:09:11;;;;;;;4.07;2.50;;;25.20;99.90;;;;;;5030419;28;20440;-51
2022/06/15 13:12:04;;;;;;;5.10;2.03;;;25.10;99.90;;;;;;5027937;28;20771;-51
2022/06/15 13:14:57;;;;;;;6.40;3.17;;;25.20;99.90;;;;;;5041023;28;20579;-51
2022/06/15 13:18:08;;;;;;;3.43;2.23;;;24.80;99.90;;;;;;5034796;28;20981;-51
2022/06/15 13:20:30;;;;;;;4.30;2.77;;;24.40;99.90;;;;;;5036068;28;20476;-51
2022/06/15 13:22:56;;;;;;;7.00;2.50;;;24.20;99.90;;;;;;5042730;28;20445;-51
2022/06/15 13:25:22;;;;;;;2.90;2.33;;;24.50;99.90;;;;;;5039441;28;20278;-51
2022/06/15 13:28:11;;;;;;;4.50;2.47;;;25.10;99.90;;;;;;5043502;28;20182;-51
2022/06/15 13:30:48;;;;;;;2.97;2.00;;;25.00;99.90;;;;;;5038958;28;20189;-51
2022/06/15 13:33:14;;;;;;;3.77;2.37;;;24.60;99.90;;;;;;5040970;28;20446;-51
2022/06/15 13:35:46;;;;;;;6.30;2.50;;;24.50;99.90;;;;;;5037715;28;20483;-51
2022/06/15 13:38:20;;;;;;;4.07;2.20;;;24.30;99.90;;;;;;5041725;28;20919;-51
2022/06/15 13:40:58;;;;;;;6.83;2.30;;;24.00;99.90;;;;;;5040505;28;20416;-51